Time;durP1;ratioP1;P1;durP2;ratioP2;P2;SDS_P1;SDS_P2;PMS_P1;PMS_P2;Temp;Humidity;BMP_temperature;BMP_pressure;BME280_temperature;BME280_humidity;BME280_pressure;Samples;Min_cycle;Max_cycle;Signal;HPM_P1;HPM_P2
2023/07/06 00:01:40;;;;;;;;;;;;;;;22.19;26.97;97596.00;4919886;29;1911;-76
2023/07/06 00:04:05;;;;;;;;;;;;;;;22.20;26.88;97608.91;4919579;29;971;-76
2023/07/06 00:06:32;;;;;;;;;;;;;;;22.32;26.81;97599.56;4904070;29;1341;-76
2023/07/06 00:08:59;;;;;;;;;;;;;;;22.38;26.83;97596.13;4906868;29;994;-76
2023/07/06 00:11:26;;;;;;;;;;;;;;;22.42;26.63;97597.59;4923050;29;886;-75
2023/07/06 00:13:51;;;;;;;;;;;;;;;22.34;26.74;97597.06;4922787;29;1064;-76
2023/07/06 00:16:17;;;;;;;;;;;;;;;22.50;26.51;97598.13;4930239;28;935;-76
2023/07/06 00:18:42;;;;;;;;;;;;;;;22.54;26.30;97598.81;4976919;28;1128;-76
2023/07/06 00:21:08;;;;;;;;;;;;;;;22.09;27.12;97592.25;4976755;28;1987;-76
2023/07/06 00:23:33;;;;;;;;;;;;;;;22.27;26.72;97591.63;4960944;28;982;-76
2023/07/06 00:25:59;;;;;;;;;;;;;;;22.19;26.99;97592.38;4960904;28;1071;-75
2023/07/06 00:28:28;;;;;;;;;;;;;;;22.29;26.75;97592.00;4976806;28;1132;-76
2023/07/06 00:30:55;;;;;;;;;;;;;;;22.22;26.98;97591.44;4976832;28;1214;-76
2023/07/06 00:33:21;;;;;;;;;;;;;;;22.18;26.83;97583.09;4960804;28;920;-75
2023/07/06 00:35:47;;;;;;;;;;;;;;;21.90;27.02;97584.03;4960872;28;1131;-76
2023/07/06 00:38:17;;;;;;;;;;;;;;;22.26;26.83;97587.22;4960165;28;964;-77
2023/07/06 00:40:43;;;;;;;;;;;;;;;22.34;26.70;97580.06;4957703;29;955;-76
2023/07/06 00:43:15;;;;;;;;;;;;;;;22.46;26.28;97586.91;4959594;28;1891;-76
2023/07/06 00:45:42;;;;;;;;;;;;;;;22.06;26.83;97587.50;4958666;28;1100;-76
2023/07/06 00:48:15;;;;;;;;;;;;;;;22.26;26.59;97589.28;4942427;29;1165;-76
2023/07/06 00:50:40;;;;;;;;;;;;;;;22.47;26.16;97582.81;4956793;29;941;-75
2023/07/06 00:53:11;;;;;;;;;;;;;;;22.18;26.79;97580.25;4940756;29;944;-76
2023/07/06 00:55:40;;;;;;;;;;;;;;;22.24;26.68;97580.44;4941504;29;1005;-76
2023/07/06 00:58:08;;;;;;;;;;;;;;;22.36;26.50;97577.56;4941622;29;1163;-76
2023/07/06 01:00:35;;;;;;;;;;;;;;;22.27;26.83;97579.50;4937808;29;1137;-75
2023/07/06 01:03:03;;;;;;;;;;;;;;;22.16;26.97;97576.28;4953831;28;1985;-76
2023/07/06 01:05:29;;;;;;;;;;;;;;;22.18;26.55;97570.97;4953222;28;1284;-76
2023/07/06 01:07:55;;;;;;;;;;;;;;;22.30;26.35;97579.41;4937526;29;1127;-76
2023/07/06 01:10:20;;;;;;;;;;;;;;;22.17;26.62;97586.34;4953590;29;1028;-76
2023/07/06 01:12:46;;;;;;;;;;;;;;;22.21;26.42;97582.16;4937850;29;961;-75
2023/07/06 01:15:12;;;;;;;;;;;;;;;22.30;26.57;97596.41;4953424;28;1145;-75
2023/07/06 01:17:45;;;;;;;;;;;;;;;22.19;26.71;97601.66;4921894;29;948;-76
2023/07/06 01:20:49;;;;;;;;;;;;;;;22.24;26.61;97603.91;4953283;29;962;-76
2023/07/06 01:23:26;;;;;;;;;;;;;;;22.10;26.64;97593.84;4918182;29;967;-76
2023/07/06 01:26:04;;;;;;;;;;;;;;;21.93;26.65;97591.63;4918300;29;1285;-77
2023/07/06 01:28:50;;;;;;;;;;;;;;;22.36;26.04;97588.09;4918146;29;1227;-76
2023/07/06 01:31:42;;;;;;;;;;;;;;;22.27;26.19;97585.97;4925416;29;963;-76
2023/07/06 01:34:43;;;;;;;;;;;;;;;22.19;26.25;97600.88;4880631;29;1168;-76
2023/07/06 01:37:23;;;;;;;;;;;;;;;22.32;26.40;97604.44;4880625;29;982;-75
2023/07/06 01:39:49;;;;;;;;;;;;;;;22.35;26.60;97598.66;4880675;29;1205;-76
2023/07/06 01:42:23;;;;;;;;;;;;;;;22.58;26.08;97596.59;4861807;29;1895;-76
2023/07/06 01:44:48;;;;;;;;;;;;;;;22.37;26.70;97609.53;4861977;29;985;-76
2023/07/06 01:47:15;;;;;;;;;;;;;;;22.26;26.74;97615.56;4846558;29;1270;-76
2023/07/06 01:49:40;;;;;;;;;;;;;;;21.98;27.44;97608.03;4861880;29;1059;-76
2023/07/06 01:52:24;;;;;;;;;;;;;;;21.99;27.44;97609.63;4862096;29;991;-76
2023/07/06 01:54:54;;;;;;;;;;;;;;;22.24;27.28;97609.59;4845991;29;921;-76
2023/07/06 01:57:24;;;;;;;;;;;;;;;22.12;27.16;97613.22;4861802;29;1020;-76
2023/07/06 01:59:50;;;;;;;;;;;;;;;22.35;26.78;97610.00;4861714;29;1322;-76
2023/07/06 02:02:16;;;;;;;;;;;;;;;22.03;27.45;97607.47;4862091;29;1982;-76
2023/07/06 02:04:43;;;;;;;;;;;;;;;22.16;27.33;97613.91;4861675;29;1174;-76
2023/07/06 02:07:10;;;;;;;;;;;;;;;22.47;26.88;97601.88;4861854;29;1255;-76
2023/07/06 02:09:42;;;;;;;;;;;;;;;22.17;27.24;97614.69;4862259;29;1035;-76
2023/07/06 02:12:08;;;;;;;;;;;;;;;22.46;26.88;97608.81;4899439;29;986;-76
2023/07/06 02:14:34;;;;;;;;;;;;;;;22.38;27.06;97601.81;4959967;29;968;-76
2023/07/06 02:16:59;;;;;;;;;;;;;;;22.30;27.24;97601.28;4960183;29;1012;-76
2023/07/06 02:19:25;;;;;;;;;;;;;;;22.59;26.71;97592.53;4943759;29;1555;-76
2023/07/06 02:21:50;;;;;;;;;;;;;;;22.38;27.01;97596.13;4943477;29;1915;-76
2023/07/06 02:24:16;;;;;;;;;;;;;;;22.55;26.80;97603.22;4927770;29;1264;-76
2023/07/06 02:26:42;;;;;;;;;;;;;;;22.14;27.34;97602.25;4943820;29;1248;-76
2023/07/06 02:29:07;;;;;;;;;;;;;;;22.39;27.11;97603.41;4959550;29;1270;-76
2023/07/06 02:31:34;;;;;;;;;;;;;;;22.19;27.26;97607.34;4959898;29;1120;-76
2023/07/06 02:34:01;;;;;;;;;;;;;;;22.23;27.15;97605.16;4940250;29;920;-77
2023/07/06 02:36:26;;;;;;;;;;;;;;;22.23;27.38;97607.22;4924761;29;1018;-76
2023/07/06 02:38:52;;;;;;;;;;;;;;;21.99;27.46;97603.97;4939858;29;966;-75
2023/07/06 02:41:18;;;;;;;;;;;;;;;22.31;26.94;97603.66;4940307;29;1914;-76
2023/07/06 02:43:43;;;;;;;;;;;;;;;22.24;27.23;97603.91;4924372;29;1129;-75
2023/07/06 02:46:09;;;;;;;;;;;;;;;22.21;27.21;97599.16;4924198;29;1043;-76
2023/07/06 02:48:35;;;;;;;;;;;;;;;22.25;27.10;97604.69;4924010;29;1542;-75
2023/07/06 02:51:00;;;;;;;;;;;;;;;22.41;27.03;97590.34;4908602;29;1249;-76
2023/07/06 02:53:27;;;;;;;;;;;;;;;21.96;27.63;97602.03;4908447;29;1139;-76
2023/07/06 02:55:53;;;;;;;;;;;;;;;22.46;26.96;97603.13;4908617;29;1113;-76
2023/07/06 02:58:18;;;;;;;;;;;;;;;22.09;27.53;97614.13;4906197;29;1451;-76
2023/07/06 03:00:47;;;;;;;;;;;;;;;22.22;27.49;97616.94;4920806;29;1140;-76
2023/07/06 03:03:14;;;;;;;;;;;;;;;22.28;27.47;97620.81;4920439;29;1972;-75
2023/07/06 03:05:43;;;;;;;;;;;;;;;22.10;27.66;97627.03;4951435;29;1171;-76
2023/07/06 03:08:08;;;;;;;;;;;;;;;22.30;27.00;97629.63;4958617;29;996;-76
2023/07/06 03:10:34;;;;;;;;;;;;;;;22.38;27.19;97624.47;4927000;29;1140;-76
2023/07/06 03:12:59;;;;;;;;;;;;;;;22.31;27.14;97626.31;4942714;29;1120;-75
2023/07/06 03:15:25;;;;;;;;;;;;;;;22.14;27.64;97627.75;4958909;29;952;-76
2023/07/06 03:17:51;;;;;;;;;;;;;;;22.25;27.53;97628.16;4959585;29;1014;-76
2023/07/06 03:20:19;;;;;;;;;;;;;;;22.62;26.83;97622.78;4959759;29;931;-75
2023/07/06 03:22:45;;;;;;;;;;;;;;;22.21;27.51;97623.88;4959621;29;1898;-76
2023/07/06 03:25:13;;;;;;;;;;;;;;;22.33;27.13;97626.69;4939265;29;1163;-76
2023/07/06 03:27:40;;;;;;;;;;;;;;;22.26;27.33;97628.94;4940626;29;1321;-75
2023/07/06 03:30:07;;;;;;;;;;;;;;;22.28;27.35;97624.44;4956565;29;1010;-75
2023/07/06 03:32:37;;;;;;;;;;;;;;;22.35;27.24;97627.00;4956507;29;915;-76
2023/07/06 03:35:06;;;;;;;;;;;;;;;22.38;26.99;97624.47;4955931;29;1707;-75
2023/07/06 03:37:33;;;;;;;;;;;;;;;22.31;27.15;97626.31;4955983;29;1110;-75
2023/07/06 03:39:58;;;;;;;;;;;;;;;22.25;27.33;97628.16;4941243;29;883;-75
2023/07/06 03:42:24;;;;;;;;;;;;;;;22.43;26.96;97630.34;4956226;29;1973;-76
2023/07/06 03:44:55;;;;;;;;;;;;;;;22.09;27.69;97625.47;4956297;29;1131;-76
2023/07/06 03:47:26;;;;;;;;;;;;;;;22.07;27.80;97622.28;4956283;29;1137;-75
2023/07/06 03:49:53;;;;;;;;;;;;;;;22.40;27.25;97627.66;4940836;29;904;-75
2023/07/06 03:52:18;;;;;;;;;;;;;;;22.36;27.15;97614.41;4956265;29;1096;-76
2023/07/06 03:54:47;;;;;;;;;;;;;;;22.24;27.68;97618.09;4955491;29;1119;-75
2023/07/06 03:57:12;;;;;;;;;;;;;;;21.97;28.05;97607.25;4938559;29;1030;-76
2023/07/06 03:59:38;;;;;;;;;;;;;;;22.12;27.63;97613.22;4922966;29;998;-75
2023/07/06 04:02:07;;;;;;;;;;;;;;;22.12;27.50;97607.56;4941775;29;1907;-76
2023/07/06 04:04:33;;;;;;;;;;;;;;;22.28;27.47;97613.09;4957580;29;958;-75
2023/07/06 04:06:58;;;;;;;;;;;;;;;22.15;27.79;97620.03;4942058;29;1059;-76
2023/07/06 04:09:25;;;;;;;;;;;;;;;21.94;28.15;97605.31;4957701;29;1035;-75
2023/07/06 04:11:52;;;;;;;;;;;;;;;22.17;27.69;97615.47;4941555;29;919;-75
2023/07/06 04:14:21;;;;;;;;;;;;;;;22.21;27.65;97612.53;4957883;29;942;-75
2023/07/06 04:16:47;;;;;;;;;;;;;;;22.19;27.85;97613.00;4941844;29;986;-76
2023/07/06 04:19:12;;;;;;;;;;;;;;;22.34;27.39;97611.25;4941374;29;925;-76
2023/07/06 04:21:38;;;;;;;;;;;;;;;22.21;27.58;97613.31;4957608;29;1910;-75
2023/07/06 04:24:04;;;;;;;;;;;;;;;22.43;27.31;97609.72;4957188;29;993;-76
2023/07/06 04:26:29;;;;;;;;;;;;;;;22.06;28.13;97615.03;4941163;29;1305;-76
2023/07/06 04:28:55;;;;;;;;;;;;;;;22.48;27.60;97620.47;4941822;29;951;-76
2023/07/06 04:31:20;;;;;;;;;;;;;;;22.29;27.95;97623.16;4957649;29;981;-76
2023/07/06 04:33:46;;;;;;;;;;;;;;;22.19;28.49;97627.16;4956966;29;952;-76
2023/07/06 04:36:12;;;;;;;;;;;;;;;22.23;28.55;97627.06;4957153;28;919;-76
2023/07/06 04:38:38;;;;;;;;;;;;;;;22.19;28.22;97630.00;4954356;29;1002;-76
2023/07/06 04:41:04;;;;;;;;;;;;;;;22.54;27.89;97630.00;4940312;29;1906;-76
2023/07/06 04:43:30;;;;;;;;;;;;;;;22.30;28.56;97636.09;4939946;29;1053;-75
2023/07/06 04:45:55;;;;;;;;;;;;;;;22.24;28.57;97637.91;4940137;29;953;-76
2023/07/06 04:48:22;;;;;;;;;;;;;;;22.53;27.94;97637.69;4954818;29;957;-75
2023/07/06 04:50:49;;;;;;;;;;;;;;;22.14;28.86;97641.91;4954797;29;909;-75
2023/07/06 04:53:16;;;;;;;;;;;;;;;22.45;28.54;97635.59;4955094;29;944;-76
2023/07/06 04:55:42;;;;;;;;;;;;;;;22.46;28.70;97643.63;4939750;29;975;-76
2023/07/06 04:58:08;;;;;;;;;;;;;;;22.54;28.57;97655.50;4939873;29;888;-76
2023/07/06 05:00:34;;;;;;;;;;;;;;;22.51;28.72;97650.75;4956542;29;898;-75
2023/07/06 05:03:03;;;;;;;;;;;;;;;22.48;28.63;97658.13;4937417;29;1914;-76
2023/07/06 05:05:31;;;;;;;;;;;;;;;22.45;28.76;97658.25;4921502;29;950;-75
2023/07/06 05:07:57;;;;;;;;;;;;;;;22.55;28.70;97657.09;4921698;29;971;-77
2023/07/06 05:10:23;;;;;;;;;;;;;;;22.52;28.57;97650.28;4937516;29;896;-76
2023/07/06 05:12:48;;;;;;;;;;;;;;;22.05;29.29;97650.28;4921577;29;888;-76
2023/07/06 05:15:16;;;;;;;;;;;;;;;22.19;29.34;97652.66;4921658;29;966;-75
2023/07/06 05:17:42;;;;;;;;;;;;;;;22.43;28.89;97649.41;4937425;29;1015;-75
2023/07/06 05:20:10;;;;;;;;;;;;;;;22.30;29.25;97647.41;4921621;29;946;-75
2023/07/06 05:22:39;;;;;;;;;;;;;;;22.40;29.30;97650.34;4921200;29;1986;-75
2023/07/06 05:25:06;;;;;;;;;;;;;;;22.52;29.01;97641.00;4937267;29;1036;-76
2023/07/06 05:27:31;;;;;;;;;;;;;;;22.32;29.13;97644.91;4921063;29;1219;-78
2023/07/06 05:29:57;;;;;;;;;;;;;;;22.68;28.84;97649.31;4937069;29;1118;-76
2023/07/06 05:32:22;;;;;;;;;;;;;;;22.30;29.48;97641.75;4937208;29;889;-76
2023/07/06 05:34:48;;;;;;;;;;;;;;;22.26;29.55;97646.75;4950722;29;1128;-75
2023/07/06 05:37:14;;;;;;;;;;;;;;;22.55;29.08;97645.75;4939261;29;968;-76
2023/07/06 05:39:39;;;;;;;;;;;;;;;22.43;29.14;97649.41;4954132;28;1148;-75
2023/07/06 05:42:05;;;;;;;;;;;;;;;22.39;29.62;97654.44;4939249;29;1966;-77
2023/07/06 05:44:31;;;;;;;;;;;;;;;22.36;29.59;97651.25;4954040;29;1469;-75
2023/07/06 05:46:56;;;;;;;;;;;;;;;22.63;29.13;97655.56;4953950;28;1159;-76
2023/07/06 05:49:22;;;;;;;;;;;;;;;22.62;29.10;97642.66;4953654;29;884;-76
2023/07/06 05:51:47;;;;;;;;;;;;;;;22.58;29.50;97644.81;4953854;28;1391;-76
2023/07/06 05:54:13;;;;;;;;;;;;;;;22.42;29.68;97642.16;4953769;29;834;-76
2023/07/06 05:56:40;;;;;;;;;;;;;;;22.44;29.35;97634.00;4954088;29;926;-75
2023/07/06 05:59:08;;;;;;;;;;;;;;;22.62;29.40;97649.09;4953989;29;1254;-75
2023/07/06 06:01:34;;;;;;;;;;;;;;;22.45;29.54;97646.91;4954011;29;1954;-76
2023/07/06 06:04:01;;;;;;;;;;;;;;;22.53;29.26;97648.22;4953682;29;1047;-75
2023/07/06 06:06:27;;;;;;;;;;;;;;;22.56;29.39;97647.31;4953175;29;1024;-75
2023/07/06 06:08:52;;;;;;;;;;;;;;;22.44;29.55;97653.84;4953881;28;1302;-75
2023/07/06 06:11:19;;;;;;;;;;;;;;;22.49;29.29;97648.38;4937939;29;1124;-76
2023/07/06 06:13:45;;;;;;;;;;;;;;;22.44;29.27;97653.84;4953477;29;900;-75
2023/07/06 06:16:13;;;;;;;;;;;;;;;22.79;29.01;97643.22;4953730;29;1571;-76
2023/07/06 06:18:41;;;;;;;;;;;;;;;22.58;29.14;97644.81;4953717;29;931;-76
2023/07/06 06:21:07;;;;;;;;;;;;;;;22.87;28.60;97648.19;4939097;29;1903;-76
2023/07/06 06:23:33;;;;;;;;;;;;;;;22.47;29.32;97639.53;4953673;29;940;-76
2023/07/06 06:25:59;;;;;;;;;;;;;;;22.50;29.05;97637.81;4954050;29;1130;-75
2023/07/06 06:28:25;;;;;;;;;;;;;;;22.50;29.34;97646.34;4953361;29;845;-75
2023/07/06 06:30:51;;;;;;;;;;;;;;;22.60;28.80;97642.31;4953698;29;931;-76
2023/07/06 06:33:17;;;;;;;;;;;;;;;22.43;29.09;97643.75;4938746;29;889;-76
2023/07/06 06:35:43;;;;;;;;;;;;;;;22.50;29.20;97649.16;4938242;29;1247;-74
2023/07/06 06:38:09;;;;;;;;;;;;;;;22.21;29.78;97638.81;4953246;29;969;-75
2023/07/06 06:40:36;;;;;;;;;;;;;;;22.62;28.92;97637.75;4936324;29;1162;-75
2023/07/06 06:43:03;;;;;;;;;;;;;;;22.53;29.01;97640.50;4935933;29;1906;-76
2023/07/06 06:45:30;;;;;;;;;;;;;;;22.43;29.13;97638.84;4920320;29;941;-75
2023/07/06 06:47:55;;;;;;;;;;;;;;;22.51;28.99;97639.41;4905043;29;951;-75
2023/07/06 06:50:21;;;;;;;;;;;;;;;22.73;28.36;97645.09;4905028;29;1086;-75
2023/07/06 06:52:48;;;;;;;;;;;;;;;22.47;29.06;97633.84;4920545;29;1232;-75
2023/07/06 06:55:13;;;;;;;;;;;;;;;22.36;29.33;97634.25;4935984;29;1058;-74
2023/07/06 06:57:39;;;;;;;;;;;;;;;22.44;29.50;97637.63;4920581;29;949;-75
2023/07/06 07:00:14;;;;;;;;;;;;;;;22.60;29.02;97636.66;4923435;29;1125;-75
2023/07/06 07:02:39;;;;;;;;;;;;;;;22.60;29.03;97642.31;4924576;29;1919;-75
2023/07/06 07:05:09;;;;;;;;;;;;;;;22.90;28.74;97642.88;4907814;29;1177;-75
2023/07/06 07:07:37;;;;;;;;;;;;;;;22.44;29.34;97631.16;4923535;29;1313;-75
2023/07/06 07:10:04;;;;;;;;;;;;;;;22.26;29.53;97641.06;4923891;29;968;-75
2023/07/06 07:12:30;;;;;;;;;;;;;;;22.61;28.99;97639.03;4940473;29;921;-75
2023/07/06 07:14:56;;;;;;;;;;;;;;;22.72;28.85;97635.78;4958502;29;1054;-74
2023/07/06 07:17:22;;;;;;;;;;;;;;;22.72;28.71;97644.28;4958787;29;955;-75
2023/07/06 07:19:48;;;;;;;;;;;;;;;22.63;29.17;97636.50;4958531;29;947;-75
2023/07/06 07:22:13;;;;;;;;;;;;;;;22.41;29.37;97637.75;4926399;29;1981;-75
2023/07/06 07:24:39;;;;;;;;;;;;;;;22.27;29.37;97642.66;4958495;29;904;-75
2023/07/06 07:27:04;;;;;;;;;;;;;;;22.59;28.97;97638.69;4958153;29;1250;-74
2023/07/06 07:29:30;;;;;;;;;;;;;;;22.48;29.47;97628.97;4942312;29;1165;-75
2023/07/06 07:31:56;;;;;;;;;;;;;;;22.70;28.75;97629.00;4939202;29;1236;-74
2023/07/06 07:34:21;;;;;;;;;;;;;;;22.63;29.17;97636.50;4956009;29;1112;-75
2023/07/06 07:36:47;;;;;;;;;;;;;;;22.67;28.93;97633.53;4955539;29;1089;-75
2023/07/06 07:39:14;;;;;;;;;;;;;;;22.53;29.45;97631.22;4941134;29;901;-75
2023/07/06 07:41:42;;;;;;;;;;;;;;;22.33;28.96;97638.00;4942072;29;1911;-76
2023/07/06 07:44:08;;;;;;;;;;;;;;;22.54;29.19;97632.84;4939780;29;906;-76
2023/07/06 07:46:35;;;;;;;;;;;;;;;22.71;28.86;97639.09;4939651;29;843;-76
2023/07/06 07:49:01;;;;;;;;;;;;;;;22.92;28.64;97629.81;4923764;29;1276;-77
2023/07/06 07:51:27;;;;;;;;;;;;;;;22.82;28.62;97637.44;4908206;29;1130;-76
2023/07/06 07:53:53;;;;;;;;;;;;;;;22.67;28.63;97635.59;4904305;29;1019;-76
2023/07/06 07:56:18;;;;;;;;;;;;;;;22.81;28.50;97630.19;4920845;29;972;-76
2023/07/06 07:58:47;;;;;;;;;;;;;;;22.65;28.94;97638.09;4882891;29;1263;-76
2023/07/06 08:01:14;;;;;;;;;;;;;;;22.77;28.77;97628.72;4882585;29;1900;-75
2023/07/06 08:03:40;;;;;;;;;;;;;;;22.90;28.71;97631.50;4860610;29;965;-76
2023/07/06 08:06:06;;;;;;;;;;;;;;;22.75;28.91;97623.53;4860851;29;835;-76
2023/07/06 08:08:32;;;;;;;;;;;;;;;22.86;28.58;97623.91;4860878;29;988;-77
2023/07/06 08:11:00;;;;;;;;;;;;;;;22.56;29.23;97618.97;4860590;29;826;-77
2023/07/06 08:13:25;;;;;;;;;;;;;;;22.59;28.94;97626.56;4882262;29;930;-76
2023/07/06 08:15:51;;;;;;;;;;;;;;;22.68;28.94;97637.97;4882412;29;846;-76
2023/07/06 08:18:16;;;;;;;;;;;;;;;22.88;28.54;97635.63;4882170;29;1145;-76
2023/07/06 08:20:46;;;;;;;;;;;;;;;22.67;29.05;97622.19;4882029;29;1038;-75
2023/07/06 08:23:12;;;;;;;;;;;;;;;22.60;28.89;97625.31;4881555;29;1915;-75
2023/07/06 08:25:41;;;;;;;;;;;;;;;22.62;29.29;97628.47;4882991;29;1131;-75
2023/07/06 08:28:08;;;;;;;;;;;;;;;22.87;28.80;97628.34;4900326;29;1010;-75
2023/07/06 08:30:34;;;;;;;;;;;;;;;22.77;28.63;97634.41;4900228;29;895;-74
2023/07/06 08:33:00;;;;;;;;;;;;;;;22.69;29.13;97631.06;4900196;29;1367;-76
2023/07/06 08:35:27;;;;;;;;;;;;;;;22.84;28.91;97629.25;4915660;29;1225;-75
2023/07/06 08:37:53;;;;;;;;;;;;;;;22.54;29.23;97621.50;4919009;29;1115;-75
2023/07/06 08:40:19;;;;;;;;;;;;;;;22.61;29.11;97624.06;4919627;29;971;-75
2023/07/06 08:42:45;;;;;;;;;;;;;;;22.73;28.56;97626.03;4900149;29;1903;-76
2023/07/06 08:45:17;;;;;;;;;;;;;;;22.78;28.77;97622.59;4884741;29;999;-75
2023/07/06 08:47:44;;;;;;;;;;;;;;;22.85;28.51;97625.19;4900205;29;915;-76
2023/07/06 08:50:10;;;;;;;;;;;;;;;22.86;28.52;97626.75;4904652;29;1142;-76
2023/07/06 08:52:36;;;;;;;;;;;;;;;22.73;28.70;97634.53;4922590;29;783;-77
2023/07/06 08:55:03;;;;;;;;;;;;;;;22.76;28.59;97621.47;4938380;29;885;-76
2023/07/06 08:57:30;;;;;;;;;;;;;;;22.57;29.21;97624.16;4922503;29;1280;-75
2023/07/06 08:59:56;;;;;;;;;;;;;;;22.80;28.56;97620.09;4938421;29;857;-76
2023/07/06 09:02:22;;;;;;;;;;;;;;;22.63;28.97;97624.38;4938339;29;1911;-76
2023/07/06 09:04:50;;;;;;;;;;;;;;;23.02;28.55;97627.81;4938241;29;834;-76
2023/07/06 09:07:16;;;;;;;;;;;;;;;22.79;28.63;97626.22;4923239;29;1193;-78
2023/07/06 09:09:42;;;;;;;;;;;;;;;22.65;29.05;97627.56;4938337;29;1270;-76
2023/07/06 09:12:46;;;;;;;;;;;;;;;22.77;29.00;97623.06;4938036;29;1215;-76
2023/07/06 09:15:16;;;;;;;;;;;;;;;22.58;29.21;97630.63;4918867;29;1168;-76
2023/07/06 09:17:50;;;;;;;;;;;;;;;22.62;28.89;97628.47;4934609;29;1086;-76
2023/07/06 09:20:16;;;;;;;;;;;;;;;22.49;29.40;97624.91;4934149;29;991;-76
2023/07/06 09:22:42;;;;;;;;;;;;;;;22.68;29.14;97632.28;4902313;29;1895;-76
2023/07/06 09:25:17;;;;;;;;;;;;;;;22.91;28.73;97638.78;4918401;29;932;-77
2023/07/06 09:27:49;;;;;;;;;;;;;;;22.72;29.09;97632.94;4920388;29;1187;-76
2023/07/06 09:30:35;;;;;;;;;;;;;;;22.77;29.03;97623.84;4937276;29;1030;-75
2023/07/06 09:33:05;;;;;;;;;;;;;;;22.87;28.99;97634.00;4921444;29;999;-77
2023/07/06 09:35:31;;;;;;;;;;;;;;;22.75;29.28;97634.88;4937981;29;1129;-77
2023/07/06 09:37:57;;;;;;;;;;;;;;;22.88;29.13;97638.44;4921606;29;1045;-77
2023/07/06 09:40:29;;;;;;;;;;;;;;;22.74;29.13;97632.47;4937515;29;1226;-76
2023/07/06 09:42:54;;;;;;;;;;;;;;;22.77;28.96;97635.19;4921867;29;1902;-76
2023/07/06 09:45:24;;;;;;;;;;;;;;;22.74;29.43;97633.31;4947399;28;968;-76
2023/07/06 09:48:13;;;;;;;;;;;;;;;22.97;28.88;97625.59;4943835;28;1026;-76
2023/07/06 09:50:40;;;;;;;;;;;;;;;22.74;29.17;97623.97;4918042;29;1040;-76
2023/07/06 09:53:07;;;;;;;;;;;;;;;22.79;29.29;97620.53;4902734;29;994;-76
2023/07/06 09:55:32;;;;;;;;;;;;;;;22.77;29.12;97618.19;4887168;29;973;-76
2023/07/06 09:57:58;;;;;;;;;;;;;;;22.79;29.27;97621.34;4902377;29;918;-76
2023/07/06 10:00:29;;;;;;;;;;;;;;;22.71;29.31;97614.34;4902711;29;851;-76
2023/07/06 10:02:59;;;;;;;;;;;;;;;22.98;29.03;97616.59;4887228;29;1975;-76
2023/07/06 10:05:34;;;;;;;;;;;;;;;23.08;28.78;97614.63;4902681;29;953;-76
2023/07/06 10:08:05;;;;;;;;;;;;;;;22.91;28.90;97608.38;4902408;29;1149;-77
2023/07/06 10:10:43;;;;;;;;;;;;;;;22.84;29.18;97612.22;4902863;29;966;-76
2023/07/06 10:13:26;;;;;;;;;;;;;;;22.77;29.45;97612.50;4902331;29;1181;-76
2023/07/06 10:16:11;;;;;;;;;;;;;;;22.91;29.17;97621.78;4902547;29;1673;-76
2023/07/06 10:18:42;;;;;;;;;;;;;;;22.75;29.52;97609.34;4918091;29;1304;-75
2023/07/06 10:21:13;;;;;;;;;;;;;;;22.83;29.41;97610.66;4918171;29;963;-76
2023/07/06 10:23:39;;;;;;;;;;;;;;;22.96;29.35;97607.00;4917615;29;1117;-77
2023/07/06 10:26:07;;;;;;;;;;;;;;;23.06;28.74;97606.56;4917816;29;1158;-76
2023/07/06 10:28:33;;;;;;;;;;;;;;;23.06;28.97;97605.78;4936248;29;896;-76
2023/07/06 10:30:59;;;;;;;;;;;;;;;23.01;29.10;97603.56;4954140;29;1113;-76
2023/07/06 10:33:27;;;;;;;;;;;;;;;22.94;29.34;97607.44;4954739;28;953;-75
2023/07/06 10:35:53;;;;;;;;;;;;;;;22.83;29.32;97602.13;4957735;29;1046;-76
2023/07/06 10:38:18;;;;;;;;;;;;;;;23.04;29.04;97596.94;4958010;29;1207;-76
2023/07/06 10:40:49;;;;;;;;;;;;;;;22.96;29.07;97598.47;4957167;29;881;-75
2023/07/06 10:43:14;;;;;;;;;;;;;;;22.97;29.21;97597.22;4957342;29;1914;-78
2023/07/06 10:45:59;;;;;;;;;;;;;;;22.68;29.52;97589.75;4942869;29;969;-75
2023/07/06 10:48:25;;;;;;;;;;;;;;;22.87;29.43;97599.97;4957234;29;870;-76
2023/07/06 10:50:50;;;;;;;;;;;;;;;23.03;29.06;97595.34;4941166;29;895;-75
2023/07/06 10:53:34;;;;;;;;;;;;;;;22.87;29.28;97594.28;4942113;29;929;-76
2023/07/06 10:56:02;;;;;;;;;;;;;;;22.83;29.67;97593.63;4942038;29;893;-75
2023/07/06 10:58:28;;;;;;;;;;;;;;;22.84;29.35;97589.53;4942036;29;937;-75
2023/07/06 11:00:57;;;;;;;;;;;;;;;22.96;29.08;97579.41;4941891;29;1026;-74
2023/07/06 11:03:24;;;;;;;;;;;;;;;23.04;29.33;97579.91;4956447;29;1902;-75
2023/07/06 11:05:57;;;;;;;;;;;;;;;22.78;29.50;97574.38;4942636;29;1433;-75
2023/07/06 11:08:42;;;;;;;;;;;;;;;23.01;29.35;97572.34;4958665;29;1022;-75
2023/07/06 11:11:16;;;;;;;;;;;;;;;22.93;29.46;97573.84;4958577;29;898;-75
2023/07/06 11:13:48;;;;;;;;;;;;;;;23.20;29.15;97571.16;4958756;29;931;-75
2023/07/06 11:16:16;;;;;;;;;;;;;;;22.66;29.80;97566.75;4942706;29;986;-74
2023/07/06 11:18:46;;;;;;;;;;;;;;;22.66;30.13;97566.75;4958576;29;1251;-75
2023/07/06 11:21:14;;;;;;;;;;;;;;;23.08;29.47;97566.38;4959164;29;936;-76
2023/07/06 11:23:46;;;;;;;;;;;;;;;22.86;29.90;97561.50;4958644;29;994;-76
2023/07/06 11:26:30;;;;;;;;;;;;;;;22.85;29.85;97562.78;4958552;29;1233;-75
2023/07/06 11:28:56;;;;;;;;;;;;;;;22.88;29.93;97559.00;4958502;29;961;-75
2023/07/06 11:31:47;;;;;;;;;;;;;;;22.94;29.61;97558.41;4958640;29;925;-76
2023/07/06 11:34:24;;;;;;;;;;;;;;;22.84;29.88;97549.81;4901403;29;981;-75
2023/07/06 11:37:01;;;;;;;;;;;;;;;23.01;29.54;97552.47;4876417;29;970;-75
2023/07/06 11:39:38;;;;;;;;;;;;;;;23.01;29.52;97556.09;4882613;29;1027;-75
2023/07/06 11:42:06;;;;;;;;;;;;;;;23.20;29.36;97554.13;4867205;29;1899;-75
2023/07/06 11:44:41;;;;;;;;;;;;;;;22.86;29.91;97553.00;4881971;29;1025;-75
2023/07/06 11:47:18;;;;;;;;;;;;;;;22.92;29.79;97555.25;4882897;29;1012;-75
2023/07/06 11:49:45;;;;;;;;;;;;;;;23.22;29.52;97551.63;4882605;29;850;-76
2023/07/06 11:52:14;;;;;;;;;;;;;;;22.97;29.78;97548.97;4867205;29;1221;-75
2023/07/06 11:54:48;;;;;;;;;;;;;;;23.10;29.60;97549.66;4898117;29;1173;-75
2023/07/06 11:57:24;;;;;;;;;;;;;;;22.98;29.74;97536.38;4897416;29;891;-76
2023/07/06 12:00:13;;;;;;;;;;;;;;;22.85;29.93;97540.06;4897815;29;923;-76
2023/07/06 12:03:10;;;;;;;;;;;;;;;22.83;29.96;97534.06;4894101;29;1902;-76
2023/07/06 12:05:37;;;;;;;;;;;;;;;22.94;29.89;97541.38;4882401;29;1064;-76
2023/07/06 12:08:10;;;;;;;;;;;;;;;23.06;29.96;97534.84;4897864;29;884;-76
2023/07/06 12:10:36;;;;;;;;;;;;;;;22.95;30.04;97534.44;4913841;29;1050;-76
2023/07/06 12:13:04;;;;;;;;;;;;;;;22.92;29.93;97526.88;4939018;29;950;-76
2023/07/06 12:15:31;;;;;;;;;;;;;;;22.86;29.88;97521.78;4939040;29;1014;-76
2023/07/06 12:17:56;;;;;;;;;;;;;;;23.15;29.82;97523.50;4938855;29;788;-75
2023/07/06 12:20:23;;;;;;;;;;;;;;;23.13;29.78;97515.47;4938556;29;964;-76
2023/07/06 12:22:50;;;;;;;;;;;;;;;22.73;30.32;97515.41;4938708;29;1923;-75
2023/07/06 12:25:19;;;;;;;;;;;;;;;23.03;29.93;97515.91;4945463;29;895;-76
2023/07/06 12:27:44;;;;;;;;;;;;;;;23.16;29.61;97525.13;4957376;29;1154;-75
2023/07/06 12:30:14;;;;;;;;;;;;;;;22.73;30.49;97520.28;4957630;29;1093;-75
2023/07/06 12:32:41;;;;;;;;;;;;;;;22.85;30.42;97525.09;4957855;29;904;-76
2023/07/06 12:35:09;;;;;;;;;;;;;;;23.00;29.85;97522.50;4957352;28;876;-76
2023/07/06 12:37:35;;;;;;;;;;;;;;;23.17;29.88;97515.34;4957619;29;960;-75
2023/07/06 12:40:01;;;;;;;;;;;;;;;22.92;30.25;97510.66;4957864;29;914;-76
2023/07/06 12:42:26;;;;;;;;;;;;;;;23.19;29.76;97512.03;4957166;29;1898;-76
2023/07/06 12:44:52;;;;;;;;;;;;;;;22.92;30.03;97521.22;4973670;28;966;-75
2023/07/06 12:47:19;;;;;;;;;;;;;;;23.02;30.08;97514.31;4957218;29;942;-76
2023/07/06 12:49:45;;;;;;;;;;;;;;;23.01;30.23;97515.59;4941167;29;935;-76
2023/07/06 12:52:10;;;;;;;;;;;;;;;23.17;29.77;97508.88;4957482;29;914;-76
2023/07/06 12:54:36;;;;;;;;;;;;;;;22.92;30.11;97509.88;4941838;29;851;-76
2023/07/06 12:57:05;;;;;;;;;;;;;;;23.03;30.12;97513.06;4941127;29;974;-75
2023/07/06 12:59:32;;;;;;;;;;;;;;;23.33;29.41;97509.38;4941073;29;947;-76
2023/07/06 13:01:57;;;;;;;;;;;;;;;23.12;29.98;97496.88;4921041;29;1894;-76
2023/07/06 13:04:24;;;;;;;;;;;;;;;23.06;30.23;97498.75;4937992;29;931;-75
2023/07/06 13:06:53;;;;;;;;;;;;;;;23.32;29.24;97499.31;4937608;29;894;-76
2023/07/06 13:09:24;;;;;;;;;;;;;;;23.30;29.57;97498.97;4937963;29;869;-76